sensor_id;sensor_type;location;lat;lon;timestamp;P1;durP1;ratioP1;P2;durP2;ratioP2
32505;SDS011;18955;51.224;8.482;2023-06-14T00:03:32;6.63;;;3.92;;
32505;SDS011;18955;51.224;8.482;2023-06-14T00:05:58;11.48;;;4.78;;
32505;SDS011;18955;51.224;8.482;2023-06-14T00:08:25;5.18;;;3.50;;
32505;SDS011;18955;51.224;8.482;2023-06-14T00:10:51;5.70;;;3.50;;
32505;SDS011;18955;51.224;8.482;2023-06-14T00:13:17;6.65;;;2.83;;
32505;SDS011;18955;51.224;8.482;2023-06-14T00:15:43;7.15;;;3.50;;
32505;SDS011;18955;51.224;8.482;2023-06-14T00:18:10;11.95;;;3.70;;
32505;SDS011;18955;51.224;8.482;2023-06-14T00:23:03;5.57;;;3.50;;
32505;SDS011;18955;51.224;8.482;2023-06-14T00:25:29;12.02;;;4.25;;
32505;SDS011;18955;51.224;8.482;2023-06-14T00:27:56;4.32;;;3.22;;
32505;SDS011;18955;51.224;8.482;2023-06-14T00:30:23;7.40;;;3.63;;
32505;SDS011;18955;51.224;8.482;2023-06-14T00:35:17;12.27;;;2.60;;
32505;SDS011;18955;51.224;8.482;2023-06-14T00:37:43;5.45;;;3.50;;
32505;SDS011;18955;51.224;8.482;2023-06-14T00:40:09;4.43;;;2.42;;
32505;SDS011;18955;51.224;8.482;2023-06-14T00:42:37;11.32;;;3.53;;
32505;SDS011;18955;51.224;8.482;2023-06-14T00:45:03;8.00;;;3.70;;
32505;SDS011;18955;51.224;8.482;2023-06-14T00:47:30;9.05;;;3.28;;
32505;SDS011;18955;51.224;8.482;2023-06-14T00:49:56;8.32;;;3.70;;
32505;SDS011;18955;51.224;8.482;2023-06-14T00:52:23;9.25;;;3.88;;
32505;SDS011;18955;51.224;8.482;2023-06-14T00:54:50;7.97;;;3.30;;
32505;SDS011;18955;51.224;8.482;2023-06-14T00:57:17;4.47;;;2.95;;
32505;SDS011;18955;51.224;8.482;2023-06-14T00:59:44;6.93;;;3.15;;
32505;SDS011;18955;51.224;8.482;2023-06-14T01:02:12;8.73;;;3.38;;
32505;SDS011;18955;51.224;8.482;2023-06-14T01:04:45;8.05;;;3.13;;
32505;SDS011;18955;51.224;8.482;2023-06-14T01:07:31;9.63;;;3.55;;
32505;SDS011;18955;51.224;8.482;2023-06-14T01:15:22;10.63;;;3.72;;
32505;SDS011;18955;51.224;8.482;2023-06-14T01:17:49;8.18;;;3.63;;
32505;SDS011;18955;51.224;8.482;2023-06-14T01:20:17;6.80;;;3.30;;
32505;SDS011;18955;51.224;8.482;2023-06-14T01:22:49;10.20;;;3.60;;
32505;SDS011;18955;51.224;8.482;2023-06-14T01:25:17;19.08;;;4.20;;
32505;SDS011;18955;51.224;8.482;2023-06-14T01:27:52;6.93;;;3.58;;
32505;SDS011;18955;51.224;8.482;2023-06-14T01:30:27;12.93;;;4.00;;
32505;SDS011;18955;51.224;8.482;2023-06-14T01:32:56;6.80;;;3.65;;
32505;SDS011;18955;51.224;8.482;2023-06-14T01:35:24;6.15;;;3.67;;
32505;SDS011;18955;51.224;8.482;2023-06-14T01:37:50;6.43;;;3.08;;
32505;SDS011;18955;51.224;8.482;2023-06-14T01:40:18;10.30;;;3.33;;
32505;SDS011;18955;51.224;8.482;2023-06-14T01:42:47;13.52;;;4.28;;
32505;SDS011;18955;51.224;8.482;2023-06-14T01:45:15;14.07;;;3.92;;
32505;SDS011;18955;51.224;8.482;2023-06-14T01:47:43;8.40;;;3.25;;
32505;SDS011;18955;51.224;8.482;2023-06-14T01:50:10;5.63;;;3.30;;
32505;SDS011;18955;51.224;8.482;2023-06-14T01:52:37;6.63;;;3.70;;
32505;SDS011;18955;51.224;8.482;2023-06-14T01:55:04;6.50;;;3.53;;
32505;SDS011;18955;51.224;8.482;2023-06-14T01:57:31;10.52;;;3.70;;
32505;SDS011;18955;51.224;8.482;2023-06-14T01:59:58;4.30;;;3.25;;
32505;SDS011;18955;51.224;8.482;2023-06-14T02:02:25;9.60;;;3.75;;
32505;SDS011;18955;51.224;8.482;2023-06-14T02:04:52;7.60;;;3.35;;
32505;SDS011;18955;51.224;8.482;2023-06-14T02:07:23;5.97;;;3.38;;
32505;SDS011;18955;51.224;8.482;2023-06-14T02:09:51;6.95;;;3.40;;
32505;SDS011;18955;51.224;8.482;2023-06-14T02:12:17;7.43;;;3.65;;
32505;SDS011;18955;51.224;8.482;2023-06-14T02:14:43;7.80;;;3.83;;
32505;SDS011;18955;51.224;8.482;2023-06-14T02:17:10;7.53;;;3.50;;
32505;SDS011;18955;51.224;8.482;2023-06-14T02:19:37;6.95;;;3.60;;
32505;SDS011;18955;51.224;8.482;2023-06-14T02:22:03;5.78;;;3.30;;
32505;SDS011;18955;51.224;8.482;2023-06-14T02:24:30;5.85;;;3.38;;
32505;SDS011;18955;51.224;8.482;2023-06-14T02:26:56;7.15;;;2.47;;
32505;SDS011;18955;51.224;8.482;2023-06-14T02:29:22;7.63;;;4.20;;
32505;SDS011;18955;51.224;8.482;2023-06-14T02:31:48;7.95;;;2.47;;
32505;SDS011;18955;51.224;8.482;2023-06-14T02:39:09;7.13;;;3.83;;
32505;SDS011;18955;51.224;8.482;2023-06-14T02:41:36;8.70;;;3.65;;
32505;SDS011;18955;51.224;8.482;2023-06-14T02:44:03;5.57;;;3.05;;
32505;SDS011;18955;51.224;8.482;2023-06-14T02:46:30;8.45;;;3.20;;
32505;SDS011;18955;51.224;8.482;2023-06-14T02:48:56;8.80;;;2.75;;
32505;SDS011;18955;51.224;8.482;2023-06-14T02:51:22;7.93;;;3.28;;
32505;SDS011;18955;51.224;8.482;2023-06-14T02:53:49;9.43;;;3.53;;
32505;SDS011;18955;51.224;8.482;2023-06-14T02:56:15;5.95;;;3.58;;
32505;SDS011;18955;51.224;8.482;2023-06-14T02:58:43;6.70;;;2.95;;
32505;SDS011;18955;51.224;8.482;2023-06-14T03:01:10;7.35;;;3.45;;
32505;SDS011;18955;51.224;8.482;2023-06-14T03:03:38;7.32;;;2.72;;
32505;SDS011;18955;51.224;8.482;2023-06-14T03:06:05;4.53;;;3.28;;
32505;SDS011;18955;51.224;8.482;2023-06-14T03:08:33;6.55;;;3.28;;
32505;SDS011;18955;51.224;8.482;2023-06-14T03:11:07;5.78;;;3.22;;
32505;SDS011;18955;51.224;8.482;2023-06-14T03:13:36;9.32;;;3.30;;
32505;SDS011;18955;51.224;8.482;2023-06-14T03:16:05;8.50;;;2.90;;
32505;SDS011;18955;51.224;8.482;2023-06-14T03:18:36;11.82;;;3.25;;
32505;SDS011;18955;51.224;8.482;2023-06-14T03:21:04;8.48;;;3.72;;
32505;SDS011;18955;51.224;8.482;2023-06-14T03:23:32;9.32;;;3.22;;
32505;SDS011;18955;51.224;8.482;2023-06-14T03:26:00;5.93;;;3.13;;
32505;SDS011;18955;51.224;8.482;2023-06-14T03:28:27;5.40;;;2.63;;
32505;SDS011;18955;51.224;8.482;2023-06-14T03:30:55;5.80;;;3.00;;
32505;SDS011;18955;51.224;8.482;2023-06-14T03:33:22;12.32;;;3.90;;
32505;SDS011;18955;51.224;8.482;2023-06-14T03:35:48;9.68;;;3.28;;
32505;SDS011;18955;51.224;8.482;2023-06-14T03:38:15;5.78;;;3.00;;
32505;SDS011;18955;51.224;8.482;2023-06-14T03:40:42;6.10;;;3.03;;
32505;SDS011;18955;51.224;8.482;2023-06-14T03:43:08;6.18;;;3.33;;
32505;SDS011;18955;51.224;8.482;2023-06-14T03:45:36;6.18;;;3.28;;
32505;SDS011;18955;51.224;8.482;2023-06-14T03:48:02;7.82;;;3.35;;
32505;SDS011;18955;51.224;8.482;2023-06-14T03:50:30;8.82;;;3.35;;
32505;SDS011;18955;51.224;8.482;2023-06-14T03:52:58;6.13;;;2.65;;
32505;SDS011;18955;51.224;8.482;2023-06-14T03:55:24;4.93;;;3.28;;
32505;SDS011;18955;51.224;8.482;2023-06-14T03:57:53;7.10;;;3.40;;
32505;SDS011;18955;51.224;8.482;2023-06-14T04:00:20;9.45;;;3.33;;
32505;SDS011;18955;51.224;8.482;2023-06-14T04:02:47;7.53;;;2.67;;
32505;SDS011;18955;51.224;8.482;2023-06-14T04:05:13;5.65;;;3.42;;
32505;SDS011;18955;51.224;8.482;2023-06-14T04:07:45;6.05;;;3.10;;
32505;SDS011;18955;51.224;8.482;2023-06-14T04:10:14;14.65;;;3.53;;
32505;SDS011;18955;51.224;8.482;2023-06-14T04:12:44;4.88;;;3.13;;
32505;SDS011;18955;51.224;8.482;2023-06-14T04:15:10;6.28;;;3.38;;
32505;SDS011;18955;51.224;8.482;2023-06-14T04:17:37;5.10;;;2.88;;
32505;SDS011;18955;51.224;8.482;2023-06-14T04:20:05;15.07;;;4.22;;
32505;SDS011;18955;51.224;8.482;2023-06-14T04:22:33;13.55;;;3.65;;
32505;SDS011;18955;51.224;8.482;2023-06-14T04:25:00;18.00;;;3.80;;
32505;SDS011;18955;51.224;8.482;2023-06-14T04:29:54;35.30;;;4.72;;
32505;SDS011;18955;51.224;8.482;2023-06-14T04:32:34;42.78;;;6.00;;
32505;SDS011;18955;51.224;8.482;2023-06-14T04:35:06;39.95;;;4.60;;
32505;SDS011;18955;51.224;8.482;2023-06-14T04:37:34;41.92;;;4.53;;
32505;SDS011;18955;51.224;8.482;2023-06-14T04:42:30;15.65;;;3.90;;
32505;SDS011;18955;51.224;8.482;2023-06-14T04:44:59;22.20;;;5.50;;
32505;SDS011;18955;51.224;8.482;2023-06-14T04:47:26;40.58;;;4.50;;
32505;SDS011;18955;51.224;8.482;2023-06-14T04:49:56;28.25;;;4.63;;
32505;SDS011;18955;51.224;8.482;2023-06-14T04:52:23;41.33;;;5.35;;
32505;SDS011;18955;51.224;8.482;2023-06-14T04:54:52;43.67;;;5.18;;
32505;SDS011;18955;51.224;8.482;2023-06-14T04:57:21;37.03;;;5.45;;
32505;SDS011;18955;51.224;8.482;2023-06-14T04:59:49;44.80;;;5.85;;
32505;SDS011;18955;51.224;8.482;2023-06-14T05:02:21;47.00;;;4.78;;
32505;SDS011;18955;51.224;8.482;2023-06-14T05:04:51;49.75;;;6.38;;
32505;SDS011;18955;51.224;8.482;2023-06-14T05:07:19;47.22;;;6.18;;
32505;SDS011;18955;51.224;8.482;2023-06-14T05:09:47;35.10;;;4.63;;
32505;SDS011;18955;51.224;8.482;2023-06-14T05:12:14;40.08;;;4.45;;
32505;SDS011;18955;51.224;8.482;2023-06-14T05:14:44;40.05;;;4.75;;
32505;SDS011;18955;51.224;8.482;2023-06-14T05:17:11;46.58;;;5.47;;
32505;SDS011;18955;51.224;8.482;2023-06-14T05:19:37;18.08;;;3.70;;
32505;SDS011;18955;51.224;8.482;2023-06-14T05:22:03;11.32;;;3.25;;
32505;SDS011;18955;51.224;8.482;2023-06-14T05:24:30;5.00;;;2.75;;
32505;SDS011;18955;51.224;8.482;2023-06-14T05:26:57;6.45;;;3.50;;
32505;SDS011;18955;51.224;8.482;2023-06-14T05:29:24;17.63;;;4.75;;
32505;SDS011;18955;51.224;8.482;2023-06-14T05:31:51;19.92;;;2.80;;
32505;SDS011;18955;51.224;8.482;2023-06-14T05:34:17;13.20;;;2.55;;
32505;SDS011;18955;51.224;8.482;2023-06-14T05:36:44;10.65;;;2.35;;
32505;SDS011;18955;51.224;8.482;2023-06-14T05:39:10;11.63;;;2.85;;
32505;SDS011;18955;51.224;8.482;2023-06-14T05:41:36;23.30;;;3.00;;
32505;SDS011;18955;51.224;8.482;2023-06-14T05:44:03;12.25;;;2.78;;
32505;SDS011;18955;51.224;8.482;2023-06-14T05:46:29;7.90;;;2.10;;
32505;SDS011;18955;51.224;8.482;2023-06-14T05:48:55;15.52;;;2.97;;
32505;SDS011;18955;51.224;8.482;2023-06-14T05:51:22;19.02;;;2.65;;
32505;SDS011;18955;51.224;8.482;2023-06-14T05:53:50;16.92;;;2.42;;
32505;SDS011;18955;51.224;8.482;2023-06-14T05:56:17;27.15;;;3.67;;
32505;SDS011;18955;51.224;8.482;2023-06-14T05:58:44;20.67;;;2.72;;
32505;SDS011;18955;51.224;8.482;2023-06-14T06:01:11;9.50;;;2.60;;
32505;SDS011;18955;51.224;8.482;2023-06-14T06:03:38;12.95;;;2.33;;
32505;SDS011;18955;51.224;8.482;2023-06-14T06:06:05;24.73;;;2.80;;
32505;SDS011;18955;51.224;8.482;2023-06-14T06:08:33;19.98;;;2.92;;
32505;SDS011;18955;51.224;8.482;2023-06-14T06:10:59;9.52;;;2.60;;
32505;SDS011;18955;51.224;8.482;2023-06-14T06:13:26;7.43;;;2.53;;
32505;SDS011;18955;51.224;8.482;2023-06-14T06:15:53;5.82;;;2.60;;
32505;SDS011;18955;51.224;8.482;2023-06-14T06:18:19;4.88;;;2.03;;
32505;SDS011;18955;51.224;8.482;2023-06-14T06:20:45;12.32;;;2.20;;
32505;SDS011;18955;51.224;8.482;2023-06-14T06:23:12;6.60;;;1.80;;
32505;SDS011;18955;51.224;8.482;2023-06-14T06:25:39;5.28;;;2.00;;
32505;SDS011;18955;51.224;8.482;2023-06-14T06:28:05;10.85;;;2.17;;
32505;SDS011;18955;51.224;8.482;2023-06-14T06:30:32;9.00;;;1.65;;
32505;SDS011;18955;51.224;8.482;2023-06-14T06:32:58;3.08;;;1.60;;
32505;SDS011;18955;51.224;8.482;2023-06-14T06:35:24;7.65;;;1.65;;
32505;SDS011;18955;51.224;8.482;2023-06-14T06:37:51;2.38;;;1.10;;
32505;SDS011;18955;51.224;8.482;2023-06-14T06:40:18;10.15;;;1.95;;
32505;SDS011;18955;51.224;8.482;2023-06-14T06:42:44;23.52;;;2.83;;
32505;SDS011;18955;51.224;8.482;2023-06-14T06:45:12;15.77;;;2.28;;
32505;SDS011;18955;51.224;8.482;2023-06-14T06:47:38;4.50;;;1.70;;
32505;SDS011;18955;51.224;8.482;2023-06-14T06:50:05;8.63;;;2.30;;
32505;SDS011;18955;51.224;8.482;2023-06-14T06:52:33;2.55;;;1.30;;
32505;SDS011;18955;51.224;8.482;2023-06-14T06:54:59;22.58;;;2.50;;
32505;SDS011;18955;51.224;8.482;2023-06-14T06:57:26;10.52;;;2.00;;
32505;SDS011;18955;51.224;8.482;2023-06-14T06:59:52;11.20;;;1.80;;
32505;SDS011;18955;51.224;8.482;2023-06-14T07:02:18;7.75;;;1.77;;
32505;SDS011;18955;51.224;8.482;2023-06-14T07:04:45;6.13;;;1.50;;
32505;SDS011;18955;51.224;8.482;2023-06-14T07:07:11;5.32;;;1.88;;
32505;SDS011;18955;51.224;8.482;2023-06-14T07:09:37;7.57;;;1.77;;
32505;SDS011;18955;51.224;8.482;2023-06-14T07:12:03;4.75;;;1.50;;
32505;SDS011;18955;51.224;8.482;2023-06-14T07:14:30;15.70;;;1.90;;
32505;SDS011;18955;51.224;8.482;2023-06-14T07:16:56;9.48;;;2.20;;
32505;SDS011;18955;51.224;8.482;2023-06-14T07:19:22;8.98;;;1.85;;
32505;SDS011;18955;51.224;8.482;2023-06-14T07:21:49;5.32;;;1.70;;
32505;SDS011;18955;51.224;8.482;2023-06-14T07:24:15;4.20;;;1.80;;
32505;SDS011;18955;51.224;8.482;2023-06-14T07:26:41;6.68;;;1.20;;
32505;SDS011;18955;51.224;8.482;2023-06-14T07:29:07;3.83;;;1.90;;
32505;SDS011;18955;51.224;8.482;2023-06-14T07:31:34;3.13;;;1.73;;
32505;SDS011;18955;51.224;8.482;2023-06-14T07:34:00;3.63;;;1.65;;
32505;SDS011;18955;51.224;8.482;2023-06-14T07:36:26;1.52;;;1.05;;
32505;SDS011;18955;51.224;8.482;2023-06-14T07:38:52;4.38;;;1.50;;
32505;SDS011;18955;51.224;8.482;2023-06-14T07:41:19;1.60;;;1.50;;
32505;SDS011;18955;51.224;8.482;2023-06-14T07:43:45;2.20;;;1.67;;
32505;SDS011;18955;51.224;8.482;2023-06-14T07:46:12;6.18;;;2.00;;
32505;SDS011;18955;51.224;8.482;2023-06-14T07:48:38;2.65;;;2.00;;
32505;SDS011;18955;51.224;8.482;2023-06-14T07:51:04;2.63;;;1.80;;
32505;SDS011;18955;51.224;8.482;2023-06-14T07:53:30;2.78;;;1.92;;
32505;SDS011;18955;51.224;8.482;2023-06-14T07:55:57;2.15;;;1.50;;
32505;SDS011;18955;51.224;8.482;2023-06-14T07:58:24;2.88;;;1.55;;
32505;SDS011;18955;51.224;8.482;2023-06-14T08:00:50;2.13;;;1.35;;
32505;SDS011;18955;51.224;8.482;2023-06-14T08:03:16;4.18;;;1.77;;
32505;SDS011;18955;51.224;8.482;2023-06-14T08:05:43;6.95;;;1.20;;
32505;SDS011;18955;51.224;8.482;2023-06-14T08:08:10;2.00;;;1.48;;
32505;SDS011;18955;51.224;8.482;2023-06-14T08:10:36;1.35;;;1.25;;
32505;SDS011;18955;51.224;8.482;2023-06-14T08:13:02;1.60;;;1.50;;
32505;SDS011;18955;51.224;8.482;2023-06-14T08:15:28;3.60;;;1.23;;
32505;SDS011;18955;51.224;8.482;2023-06-14T08:17:54;1.60;;;1.17;;
32505;SDS011;18955;51.224;8.482;2023-06-14T08:20:21;3.33;;;1.60;;
32505;SDS011;18955;51.224;8.482;2023-06-14T08:22:48;2.63;;;1.60;;
32505;SDS011;18955;51.224;8.482;2023-06-14T08:25:14;2.22;;;1.08;;
32505;SDS011;18955;51.224;8.482;2023-06-14T08:27:40;13.20;;;2.17;;
32505;SDS011;18955;51.224;8.482;2023-06-14T08:30:07;4.78;;;1.83;;
32505;SDS011;18955;51.224;8.482;2023-06-14T08:34:59;2.22;;;1.90;;
32505;SDS011;18955;51.224;8.482;2023-06-14T08:37:26;3.70;;;1.85;;
32505;SDS011;18955;51.224;8.482;2023-06-14T08:39:52;2.40;;;1.95;;
32505;SDS011;18955;51.224;8.482;2023-06-14T08:42:18;12.55;;;2.20;;
32505;SDS011;18955;51.224;8.482;2023-06-14T08:44:47;5.50;;;2.53;;
32505;SDS011;18955;51.224;8.482;2023-06-14T08:47:13;5.78;;;2.60;;
32505;SDS011;18955;51.224;8.482;2023-06-14T08:49:41;4.47;;;2.55;;
32505;SDS011;18955;51.224;8.482;2023-06-14T08:52:12;2.85;;;2.17;;
32505;SDS011;18955;51.224;8.482;2023-06-14T08:54:44;2.47;;;2.10;;
32505;SDS011;18955;51.224;8.482;2023-06-14T08:57:11;9.05;;;2.20;;
32505;SDS011;18955;51.224;8.482;2023-06-14T08:59:45;7.53;;;2.20;;
32505;SDS011;18955;51.224;8.482;2023-06-14T09:02:15;6.22;;;2.50;;
32505;SDS011;18955;51.224;8.482;2023-06-14T09:04:43;3.72;;;2.33;;
32505;SDS011;18955;51.224;8.482;2023-06-14T09:07:10;4.40;;;2.35;;
32505;SDS011;18955;51.224;8.482;2023-06-14T09:09:39;3.83;;;2.20;;
32505;SDS011;18955;51.224;8.482;2023-06-14T09:12:08;4.68;;;2.10;;
32505;SDS011;18955;51.224;8.482;2023-06-14T09:14:36;2.28;;;1.92;;
32505;SDS011;18955;51.224;8.482;2023-06-14T09:17:05;5.38;;;2.15;;
32505;SDS011;18955;51.224;8.482;2023-06-14T09:19:31;5.68;;;2.22;;
32505;SDS011;18955;51.224;8.482;2023-06-14T09:21:59;4.22;;;2.03;;
32505;SDS011;18955;51.224;8.482;2023-06-14T09:26:52;4.53;;;2.17;;
32505;SDS011;18955;51.224;8.482;2023-06-14T09:29:19;3.45;;;2.40;;
32505;SDS011;18955;51.224;8.482;2023-06-14T09:31:48;8.52;;;2.20;;
32505;SDS011;18955;51.224;8.482;2023-06-14T09:34:15;6.50;;;2.45;;
32505;SDS011;18955;51.224;8.482;2023-06-14T09:36:43;3.95;;;2.28;;
32505;SDS011;18955;51.224;8.482;2023-06-14T09:39:09;3.65;;;2.00;;
32505;SDS011;18955;51.224;8.482;2023-06-14T09:41:37;3.17;;;1.95;;
32505;SDS011;18955;51.224;8.482;2023-06-14T09:44:08;2.88;;;2.30;;
32505;SDS011;18955;51.224;8.482;2023-06-14T09:46:36;2.75;;;2.20;;
32505;SDS011;18955;51.224;8.482;2023-06-14T09:49:04;5.20;;;2.65;;
32505;SDS011;18955;51.224;8.482;2023-06-14T09:51:31;2.85;;;2.35;;
32505;SDS011;18955;51.224;8.482;2023-06-14T09:53:58;4.07;;;2.30;;
32505;SDS011;18955;51.224;8.482;2023-06-14T09:56:34;8.52;;;3.55;;
32505;SDS011;18955;51.224;8.482;2023-06-14T09:59:04;8.93;;;2.55;;
32505;SDS011;18955;51.224;8.482;2023-06-14T10:01:35;7.28;;;2.78;;
32505;SDS011;18955;51.224;8.482;2023-06-14T10:04:06;3.40;;;2.25;;
32505;SDS011;18955;51.224;8.482;2023-06-14T10:06:36;3.72;;;2.38;;
32505;SDS011;18955;51.224;8.482;2023-06-14T10:09:07;11.18;;;2.70;;
32505;SDS011;18955;51.224;8.482;2023-06-14T10:11:35;5.50;;;2.30;;
32505;SDS011;18955;51.224;8.482;2023-06-14T10:14:03;2.90;;;2.25;;
32505;SDS011;18955;51.224;8.482;2023-06-14T10:16:32;5.40;;;2.47;;
32505;SDS011;18955;51.224;8.482;2023-06-14T10:19:18;5.32;;;2.30;;
32505;SDS011;18955;51.224;8.482;2023-06-14T10:24:42;4.43;;;2.47;;
32505;SDS011;18955;51.224;8.482;2023-06-14T10:27:09;7.95;;;3.00;;
32505;SDS011;18955;51.224;8.482;2023-06-14T10:32:21;4.35;;;2.22;;
32505;SDS011;18955;51.224;8.482;2023-06-14T10:35:08;4.28;;;2.28;;
32505;SDS011;18955;51.224;8.482;2023-06-14T10:37:41;4.10;;;2.20;;
32505;SDS011;18955;51.224;8.482;2023-06-14T10:40:07;4.40;;;2.58;;
32505;SDS011;18955;51.224;8.482;2023-06-14T10:42:34;5.47;;;2.70;;
32505;SDS011;18955;51.224;8.482;2023-06-14T10:45:00;4.28;;;2.63;;
32505;SDS011;18955;51.224;8.482;2023-06-14T10:50:06;5.63;;;2.28;;
32505;SDS011;18955;51.224;8.482;2023-06-14T11:00:22;7.72;;;2.90;;
32505;SDS011;18955;51.224;8.482;2023-06-14T11:02:51;6.90;;;2.00;;
32505;SDS011;18955;51.224;8.482;2023-06-14T11:05:30;5.35;;;2.20;;
32505;SDS011;18955;51.224;8.482;2023-06-14T11:10:49;5.32;;;2.60;;
32505;SDS011;18955;51.224;8.482;2023-06-14T11:13:16;4.00;;;2.55;;
32505;SDS011;18955;51.224;8.482;2023-06-14T11:18:10;5.97;;;2.53;;
32505;SDS011;18955;51.224;8.482;2023-06-14T11:20:39;8.40;;;2.63;;
32505;SDS011;18955;51.224;8.482;2023-06-14T11:25:32;4.38;;;2.95;;
32505;SDS011;18955;51.224;8.482;2023-06-14T11:27:58;2.80;;;2.25;;
32505;SDS011;18955;51.224;8.482;2023-06-14T11:30:24;5.68;;;2.30;;
32505;SDS011;18955;51.224;8.482;2023-06-14T11:32:52;14.57;;;3.00;;
32505;SDS011;18955;51.224;8.482;2023-06-14T11:35:19;4.38;;;2.80;;
32505;SDS011;18955;51.224;8.482;2023-06-14T11:37:49;3.92;;;2.58;;
32505;SDS011;18955;51.224;8.482;2023-06-14T11:40:18;5.97;;;2.65;;
32505;SDS011;18955;51.224;8.482;2023-06-14T11:42:44;3.53;;;3.08;;
32505;SDS011;18955;51.224;8.482;2023-06-14T11:45:11;4.63;;;2.65;;
32505;SDS011;18955;51.224;8.482;2023-06-14T11:47:38;8.70;;;2.63;;
32505;SDS011;18955;51.224;8.482;2023-06-14T11:50:06;3.35;;;2.45;;
32505;SDS011;18955;51.224;8.482;2023-06-14T11:52:36;5.25;;;2.83;;
32505;SDS011;18955;51.224;8.482;2023-06-14T11:55:03;4.25;;;2.83;;
32505;SDS011;18955;51.224;8.482;2023-06-14T11:57:35;10.43;;;2.50;;
32505;SDS011;18955;51.224;8.482;2023-06-14T12:00:08;7.07;;;2.75;;
32505;SDS011;18955;51.224;8.482;2023-06-14T12:02:38;3.78;;;2.60;;
32505;SDS011;18955;51.224;8.482;2023-06-14T12:05:06;5.47;;;2.42;;
32505;SDS011;18955;51.224;8.482;2023-06-14T12:07:36;6.53;;;3.17;;
32505;SDS011;18955;51.224;8.482;2023-06-14T12:10:03;6.68;;;3.03;;
32505;SDS011;18955;51.224;8.482;2023-06-14T12:12:37;7.85;;;2.88;;
32505;SDS011;18955;51.224;8.482;2023-06-14T12:15:05;6.55;;;2.80;;
32505;SDS011;18955;51.224;8.482;2023-06-14T12:17:33;6.88;;;3.08;;
32505;SDS011;18955;51.224;8.482;2023-06-14T12:20:10;19.70;;;3.33;;
32505;SDS011;18955;51.224;8.482;2023-06-14T12:22:46;15.10;;;3.33;;
32505;SDS011;18955;51.224;8.482;2023-06-14T12:25:25;6.15;;;2.80;;
32505;SDS011;18955;51.224;8.482;2023-06-14T12:27:55;4.72;;;2.80;;
32505;SDS011;18955;51.224;8.482;2023-06-14T12:30:23;4.88;;;2.42;;
32505;SDS011;18955;51.224;8.482;2023-06-14T12:32:49;5.65;;;3.15;;
32505;SDS011;18955;51.224;8.482;2023-06-14T12:35:17;18.60;;;3.15;;
32505;SDS011;18955;51.224;8.482;2023-06-14T12:37:47;7.97;;;2.95;;
32505;SDS011;18955;51.224;8.482;2023-06-14T12:40:13;6.65;;;2.72;;
32505;SDS011;18955;51.224;8.482;2023-06-14T12:42:40;19.85;;;3.22;;
32505;SDS011;18955;51.224;8.482;2023-06-14T12:45:06;8.05;;;4.25;;
32505;SDS011;18955;51.224;8.482;2023-06-14T12:49:59;3.60;;;2.45;;
32505;SDS011;18955;51.224;8.482;2023-06-14T12:52:26;4.80;;;2.67;;
32505;SDS011;18955;51.224;8.482;2023-06-14T12:54:52;8.88;;;2.47;;
32505;SDS011;18955;51.224;8.482;2023-06-14T12:57:18;6.18;;;2.67;;
32505;SDS011;18955;51.224;8.482;2023-06-14T12:59:44;8.45;;;2.60;;
32505;SDS011;18955;51.224;8.482;2023-06-14T13:04:37;3.75;;;2.45;;
32505;SDS011;18955;51.224;8.482;2023-06-14T13:07:04;11.48;;;2.97;;
32505;SDS011;18955;51.224;8.482;2023-06-14T13:11:56;2.95;;;2.33;;
32505;SDS011;18955;51.224;8.482;2023-06-14T13:14:22;5.15;;;2.42;;
32505;SDS011;18955;51.224;8.482;2023-06-14T13:16:49;3.25;;;2.92;;
32505;SDS011;18955;51.224;8.482;2023-06-14T13:19:15;3.63;;;2.80;;
32505;SDS011;18955;51.224;8.482;2023-06-14T13:21:41;4.22;;;2.80;;
32505;SDS011;18955;51.224;8.482;2023-06-14T13:24:08;3.17;;;2.67;;
32505;SDS011;18955;51.224;8.482;2023-06-14T13:26:34;4.47;;;2.80;;
32505;SDS011;18955;51.224;8.482;2023-06-14T13:29:01;3.13;;;2.63;;
32505;SDS011;18955;51.224;8.482;2023-06-14T13:31:27;5.00;;;3.10;;
32505;SDS011;18955;51.224;8.482;2023-06-14T13:33:53;3.83;;;2.88;;
32505;SDS011;18955;51.224;8.482;2023-06-14T13:36:19;8.10;;;2.70;;
32505;SDS011;18955;51.224;8.482;2023-06-14T13:38:45;5.15;;;2.00;;
32505;SDS011;18955;51.224;8.482;2023-06-14T13:41:12;3.95;;;3.10;;
32505;SDS011;18955;51.224;8.482;2023-06-14T13:43:38;5.85;;;3.03;;
32505;SDS011;18955;51.224;8.482;2023-06-14T13:46:04;5.82;;;2.67;;
32505;SDS011;18955;51.224;8.482;2023-06-14T13:48:30;3.60;;;2.85;;
32505;SDS011;18955;51.224;8.482;2023-06-14T13:50:59;3.63;;;2.72;;
32505;SDS011;18955;51.224;8.482;2023-06-14T13:53:25;4.70;;;2.80;;
32505;SDS011;18955;51.224;8.482;2023-06-14T13:55:52;3.90;;;2.65;;
32505;SDS011;18955;51.224;8.482;2023-06-14T13:58:18;5.25;;;2.50;;
32505;SDS011;18955;51.224;8.482;2023-06-14T14:03:11;5.60;;;2.58;;
32505;SDS011;18955;51.224;8.482;2023-06-14T14:05:37;7.60;;;2.65;;
32505;SDS011;18955;51.224;8.482;2023-06-14T14:08:03;6.15;;;2.80;;
32505;SDS011;18955;51.224;8.482;2023-06-14T14:10:30;8.20;;;2.50;;
32505;SDS011;18955;51.224;8.482;2023-06-14T14:12:56;5.15;;;2.65;;
32505;SDS011;18955;51.224;8.482;2023-06-14T14:15:22;7.20;;;2.80;;
32505;SDS011;18955;51.224;8.482;2023-06-14T14:17:48;5.65;;;2.97;;
32505;SDS011;18955;51.224;8.482;2023-06-14T14:20:15;5.63;;;2.88;;
32505;SDS011;18955;51.224;8.482;2023-06-14T14:22:42;4.60;;;2.58;;
32505;SDS011;18955;51.224;8.482;2023-06-14T14:25:09;3.75;;;2.65;;
32505;SDS011;18955;51.224;8.482;2023-06-14T14:27:36;5.80;;;2.80;;
32505;SDS011;18955;51.224;8.482;2023-06-14T14:30:03;2.75;;;2.50;;
32505;SDS011;18955;51.224;8.482;2023-06-14T14:32:30;4.85;;;2.50;;
32505;SDS011;18955;51.224;8.482;2023-06-14T14:34:56;12.88;;;2.45;;
32505;SDS011;18955;51.224;8.482;2023-06-14T14:37:23;6.35;;;3.10;;
32505;SDS011;18955;51.224;8.482;2023-06-14T14:39:49;4.35;;;2.53;;
32505;SDS011;18955;51.224;8.482;2023-06-14T14:42:15;3.83;;;2.70;;
32505;SDS011;18955;51.224;8.482;2023-06-14T14:44:41;4.68;;;2.50;;
32505;SDS011;18955;51.224;8.482;2023-06-14T14:47:08;4.78;;;2.67;;
32505;SDS011;18955;51.224;8.482;2023-06-14T14:49:34;12.10;;;2.92;;
32505;SDS011;18955;51.224;8.482;2023-06-14T14:52:00;3.22;;;2.70;;
32505;SDS011;18955;51.224;8.482;2023-06-14T14:54:26;7.10;;;2.47;;
32505;SDS011;18955;51.224;8.482;2023-06-14T14:56:54;3.38;;;2.40;;
32505;SDS011;18955;51.224;8.482;2023-06-14T14:59:20;12.10;;;2.80;;
32505;SDS011;18955;51.224;8.482;2023-06-14T15:01:50;7.88;;;2.92;;
32505;SDS011;18955;51.224;8.482;2023-06-14T15:04:16;3.63;;;2.75;;
32505;SDS011;18955;51.224;8.482;2023-06-14T15:06:42;3.42;;;2.42;;
32505;SDS011;18955;51.224;8.482;2023-06-14T15:09:09;7.50;;;2.50;;
32505;SDS011;18955;51.224;8.482;2023-06-14T15:11:35;4.20;;;2.50;;
32505;SDS011;18955;51.224;8.482;2023-06-14T15:14:01;2.88;;;2.25;;
32505;SDS011;18955;51.224;8.482;2023-06-14T15:16:27;5.03;;;2.35;;
32505;SDS011;18955;51.224;8.482;2023-06-14T15:18:54;4.30;;;2.53;;
32505;SDS011;18955;51.224;8.482;2023-06-14T15:21:20;6.45;;;2.20;;
32505;SDS011;18955;51.224;8.482;2023-06-14T15:23:48;3.63;;;2.40;;
32505;SDS011;18955;51.224;8.482;2023-06-14T15:26:15;2.88;;;2.40;;
32505;SDS011;18955;51.224;8.482;2023-06-14T15:28:41;4.50;;;2.60;;
32505;SDS011;18955;51.224;8.482;2023-06-14T15:31:08;2.20;;;1.73;;
32505;SDS011;18955;51.224;8.482;2023-06-14T15:33:34;2.53;;;2.30;;
32505;SDS011;18955;51.224;8.482;2023-06-14T15:36:00;2.97;;;1.80;;
32505;SDS011;18955;51.224;8.482;2023-06-14T15:38:26;6.07;;;2.55;;
32505;SDS011;18955;51.224;8.482;2023-06-14T15:40:52;5.97;;;2.63;;
32505;SDS011;18955;51.224;8.482;2023-06-14T15:43:19;5.70;;;2.50;;
32505;SDS011;18955;51.224;8.482;2023-06-14T15:45:45;3.17;;;2.22;;
32505;SDS011;18955;51.224;8.482;2023-06-14T15:48:11;4.47;;;1.90;;